Terminal Aerodrome Forecast
Issued by NWS Shreveport, LA

Home | Current Version | Previous Version | Text Only | Print | Product List | Glossary On
Versions: 1 2 3 4 5 6 7 8 9 10 11 12 13 14 15 16 17 18 19 20 21 22 23
543
FTUS44 KSHV 011616 AAA
TAFMLU
TAF AMD
KMLU 011616Z 0116/0212 VRB05KT P6SM FEW015 SCT100
      TEMPO 0116/0118 16007KT BKN015 BKN080
     FM011800 VRB05KT P6SM VCSH BKN030 BKN070
      TEMPO 0118/0120 6SM -TSRA BKN025CB BKN070
     FM012100 16005KT P6SM SCT035 BKN045
     FM020000 VRB04KT P6SM VCTS BKN035CB OVC100
     FM020600 VRB04KT P6SM VCSH BKN025 OVC045
     FM020900 VRB04KT 4SM -TSRA BKN015CB OVC035=

USA.gov is the U.S. government's official web portal to all federal, state and local government web resources and services.